Time;durP1;ratioP1;P1;durP2;ratioP2;P2;SDS_P1;SDS_P2;PMS_P1;PMS_P2;Temp;Humidity;BMP_temperature;BMP_pressure;BME280_temperature;BME280_humidity;BME280_pressure;Samples;Min_cycle;Max_cycle;Signal;HPM_P1;HPM_P2
2021/01/23 00:02:23;;;;;;;123.50;65.03;;;;;;;4.47;100.00;98206.44;5081465;28;20058;-71
2021/01/23 00:05:27;;;;;;;122.57;64.82;;;;;;;4.45;100.00;98195.97;5086598;28;20048;-72
2021/01/23 00:08:32;;;;;;;120.95;65.15;;;;;;;4.45;100.00;98176.53;5087628;28;20395;-71
2021/01/23 00:11:36;;;;;;;107.82;62.83;;;;;;;4.42;100.00;98183.00;5095981;28;20391;-71
2021/01/23 00:14:40;;;;;;;105.97;61.85;;;;;;;4.41;100.00;98189.31;5076606;28;20044;-72
2021/01/23 00:17:45;;;;;;;107.90;63.90;;;;;;;4.42;100.00;98183.00;5086322;28;20044;-73
2021/01/23 00:20:50;;;;;;;112.55;63.60;;;;;;;4.39;100.00;98179.81;5075448;28;20040;-73
2021/01/23 00:23:54;;;;;;;106.38;63.03;;;;;;;4.36;100.00;98185.41;5077206;28;20036;-73
2021/01/23 00:26:58;;;;;;;108.47;62.38;;;;;;;4.39;100.00;98169.19;5093496;28;20399;-73
2021/01/23 00:30:04;;;;;;;100.72;59.85;;;;;;;4.37;100.00;98171.16;5075257;28;20041;-72
2021/01/23 00:33:08;;;;;;;107.90;61.88;;;;;;;4.32;100.00;98160.97;5074937;28;20040;-73
2021/01/23 00:36:12;;;;;;;109.13;64.95;;;;;;;4.25;100.00;98141.31;5075178;28;20383;-73
2021/01/23 00:39:16;;;;;;;115.55;65.50;;;;;;;4.20;100.00;98150.69;5091983;28;20036;-72
2021/01/23 00:42:21;;;;;;;110.55;63.97;;;;;;;4.18;100.00;98116.34;5095290;28;20035;-71
2021/01/23 00:45:25;;;;;;;107.35;64.20;;;;;;;4.15;100.00;98121.94;5093826;28;20044;-72
2021/01/23 00:48:30;;;;;;;130.38;67.28;;;;;;;4.12;100.00;98140.84;5076943;28;20048;-71
2021/01/23 00:51:35;;;;;;;112.82;64.97;;;;;;;4.12;100.00;98145.31;5074386;28;20464;-73
2021/01/23 00:54:45;;;;;;;108.68;64.63;;;;;;;4.18;100.00;98150.00;5078792;28;20043;-73
2021/01/23 00:57:50;;;;;;;104.07;60.58;;;;;;;4.14;100.00;98154.81;5090476;28;20040;-75
2021/01/23 01:00:55;;;;;;;96.13;59.45;;;;;;;4.14;100.00;98146.84;5078879;28;20040;-73
2021/01/23 01:04:00;;;;;;;280.85;63.83;;;;;;;4.11;100.00;98143.63;5082563;28;20111;-74
2021/01/23 01:07:04;;;;;;;97.63;59.53;;;;;;;4.11;100.00;98154.25;5091434;28;20410;-72
2021/01/23 01:10:09;;;;;;;91.85;59.67;;;;;;;4.15;100.00;98155.66;5078869;28;20051;-71
2021/01/23 01:13:15;;;;;;;142.13;60.67;;;;;;;4.08;100.00;98144.75;5074822;28;20047;-73
2021/01/23 01:16:20;;;;;;;98.85;59.55;;;;;;;4.09;100.00;98146.44;5074513;28;20395;-72
2021/01/23 01:19:24;;;;;;;93.70;57.28;;;;;;;4.14;100.00;98138.88;5085317;28;20047;-72
2021/01/23 01:22:28;;;;;;;98.75;59.33;;;;;;;4.13;100.00;98131.88;5074135;28;20067;-73
2021/01/23 01:25:35;;;;;;;93.90;59.05;;;;;;;4.14;100.00;98146.00;5074784;28;20063;-73
2021/01/23 01:28:39;;;;;;;97.43;58.38;;;;;;;4.15;100.00;98134.41;5074062;28;20043;-73
2021/01/23 01:31:44;;;;;;;90.30;57.38;;;;;;;4.23;100.00;98130.00;5077864;28;20051;-73
2021/01/23 01:34:48;;;;;;;118.30;59.45;;;;;;;4.23;100.00;98124.69;5094443;28;20051;-71
2021/01/23 01:37:53;;;;;;;84.15;54.58;;;;;;;4.26;100.00;98127.06;5093630;28;20039;-73
2021/01/23 01:40:57;;;;;;;90.30;57.15;;;;;;;4.25;100.00;98122.72;5074154;28;20051;-72
2021/01/23 01:44:03;;;;;;;91.55;57.20;;;;;;;4.20;100.00;98121.50;5073592;28;20586;-72
2021/01/23 01:47:07;;;;;;;101.30;57.08;;;;;;;4.18;100.00;98111.03;5085604;28;20059;-72
2021/01/23 01:50:13;;;;;;;85.40;55.28;;;;;;;4.23;100.00;98099.97;5090677;28;20044;-73
2021/01/23 01:53:21;;;;;;;153.57;55.20;;;;;;;4.21;100.00;98104.59;5082264;28;20055;-72
2021/01/23 01:56:27;;;;;;;88.13;54.50;;;;;;;4.16;100.00;98097.09;5091606;28;20495;-72
2021/01/23 01:59:31;;;;;;;102.07;56.55;;;;;;;4.16;100.00;98094.44;5089181;28;20047;-73
2021/01/23 02:03:00;;;;;;;88.85;54.67;;;;;;;4.17;100.00;98106.72;5074146;28;20041;-73
2021/01/23 02:06:40;;;;;;;119.57;56.25;;;;;;;4.16;100.00;98094.44;5073757;28;20052;-73
2021/01/23 02:09:44;;;;;;;159.23;55.45;;;;;;;4.19;100.00;98080.03;5087094;28;20388;-72
2021/01/23 02:13:16;;;;;;;135.23;58.25;;;;;;;4.11;100.00;98079.94;5088612;28;20052;-72
2021/01/23 02:16:25;;;;;;;149.32;57.42;;;;;;;4.08;100.00;98072.25;5091097;28;20044;-73
2021/01/23 02:19:48;;;;;;;107.35;57.22;;;;;;;4.12;100.00;98074.50;5093183;28;20463;-72
2021/01/23 02:23:13;;;;;;;224.25;57.28;;;;;;;4.12;100.00;98063.03;5093113;28;20048;-73
2021/01/23 02:26:54;;;;;;;87.05;54.92;;;;;;;4.14;100.00;98066.38;5092657;28;20378;-71
2021/01/23 02:30:14;;;;;;;92.07;53.53;;;;;;;4.19;100.00;98053.47;5073043;28;20411;-72
2021/01/23 02:33:21;;;;;;;84.88;53.00;;;;;;;4.24;100.00;98049.38;5072789;28;20498;-73
2021/01/23 02:36:27;;;;;;;87.97;53.85;;;;;;;4.27;100.00;98051.72;5073608;28;20048;-71
2021/01/23 02:39:34;;;;;;;91.53;53.45;;;;;;;4.24;100.00;98057.34;5085782;28;20051;-71
2021/01/23 02:42:39;;;;;;;84.10;54.40;;;;;;;4.19;100.00;98041.03;5093527;28;20490;-71
2021/01/23 02:45:48;;;;;;;96.47;54.75;;;;;;;4.22;100.00;98047.88;5093842;28;20162;-73
2021/01/23 02:48:52;;;;;;;88.05;51.67;;;;;;;4.28;100.00;98048.09;5079278;28;20051;-71
2021/01/23 02:52:11;;;;;;;81.35;49.25;;;;;;;4.28;100.00;98071.13;5085172;28;20047;-71
2021/01/23 02:55:20;;;;;;;77.70;47.88;;;;;;;4.29;100.00;98071.00;5093686;28;20470;-70
2021/01/23 02:58:30;;;;;;;64.25;41.58;;;;;;;4.28;100.00;98079.94;5093567;28;20066;-71
2021/01/23 03:01:40;;;;;;;44.38;31.30;;;;;;;4.25;100.00;98093.50;5093602;28;20039;-72
2021/01/23 03:04:46;;;;;;;32.42;22.25;;;;;;;4.23;100.00;98090.19;5097529;28;20367;-71
2021/01/23 03:07:53;;;;;;;27.35;18.92;;;;;;;4.25;100.00;98098.00;5085040;28;20513;-72
2021/01/23 03:10:58;;;;;;;24.10;15.65;;;;;;;4.22;100.00;98103.63;5083900;28;20047;-72
2021/01/23 03:14:02;;;;;;;23.50;15.07;;;;;;;4.13;100.00;98102.69;5081583;28;20399;-72
2021/01/23 03:17:07;;;;;;;19.00;14.10;;;;;;;4.05;100.00;98091.97;5077066;28;20056;-73
2021/01/23 03:20:11;;;;;;;20.60;12.95;;;;;;;3.99;100.00;98107.66;5076714;28;20047;-72
2021/01/23 03:23:16;;;;;;;21.40;12.73;;;;;;;3.91;100.00;98111.06;5078806;28;20051;-73
2021/01/23 03:26:21;;;;;;;16.48;11.80;;;;;;;3.90;100.00;98114.72;5096463;28;20063;-75
2021/01/23 03:29:25;;;;;;;13.77;11.45;;;;;;;3.86;100.00;98114.16;5096838;28;20067;-78
2021/01/23 03:32:30;;;;;;;15.02;11.52;;;;;;;3.90;100.00;98125.31;5095977;28;20063;-73
2021/01/23 03:35:35;;;;;;;14.90;11.18;;;;;;;3.87;100.00;98133.56;5096990;28;20058;-73
2021/01/23 03:38:39;;;;;;;13.38;10.68;;;;;;;3.89;100.00;98134.25;5091793;28;20064;-72
2021/01/23 03:41:43;;;;;;;13.45;9.38;;;;;;;3.90;100.00;98142.06;5076339;28;20048;-72
2021/01/23 03:44:48;;;;;;;14.15;9.18;;;;;;;3.90;100.00;98141.25;5076322;28;20111;-72
2021/01/23 03:47:53;;;;;;;10.90;7.55;;;;;;;3.87;100.00;98141.53;5088408;28;20073;-72
2021/01/23 03:50:57;;;;;;;10.07;7.68;;;;;;;3.87;100.00;98147.69;5096447;28;20051;-72
2021/01/23 03:54:01;;;;;;;10.88;7.95;;;;;;;3.88;100.00;98161.75;5087300;28;20051;-74
2021/01/23 03:57:06;;;;;;;7.50;6.63;;;;;;;3.86;100.00;98156.63;5090006;28;20055;-73
2021/01/23 04:00:11;;;;;;;7.50;6.45;;;;;;;3.91;100.00;98158.81;5096113;28;20050;-72
2021/01/23 04:03:15;;;;;;;9.48;6.43;;;;;;;3.97;100.00;98168.03;5095099;28;20051;-71
2021/01/23 04:06:19;;;;;;;8.57;5.60;;;;;;;3.97;100.00;98168.88;5095484;28;20055;-72
2021/01/23 04:09:24;;;;;;;7.63;5.68;;;;;;;3.99;100.00;98172.19;5094511;28;20047;-73
2021/01/23 04:12:28;;;;;;;9.88;6.43;;;;;;;4.06;100.00;98175.94;5095686;28;20062;-71
2021/01/23 04:15:33;;;;;;;8.30;6.15;;;;;;;3.99;100.00;98164.25;5095089;28;20051;-72
2021/01/23 04:18:37;;;;;;;9.38;6.22;;;;;;;4.05;100.00;98165.47;5094931;28;20459;-71
2021/01/23 04:21:42;;;;;;;7.88;5.57;;;;;;;4.05;100.00;98168.94;5095670;28;20051;-73
2021/01/23 04:24:46;;;;;;;7.68;5.65;;;;;;;4.01;100.00;98166.72;5095464;28;20513;-73
2021/01/23 04:27:51;;;;;;;7.68;5.50;;;;;;;4.05;100.00;98178.75;5094832;28;20054;-74
2021/01/23 04:30:55;;;;;;;7.47;5.57;;;;;;;4.05;100.00;98184.06;5095548;28;20061;-71
2021/01/23 04:34:00;;;;;;;8.20;5.32;;;;;;;4.11;100.00;98181.63;5094688;28;20130;-74
2021/01/23 04:37:05;;;;;;;9.52;5.40;;;;;;;4.18;100.00;98185.38;5095678;28;20059;-71
2021/01/23 04:40:11;;;;;;;9.90;5.85;;;;;;;4.22;100.00;98192.03;5094187;28;20055;-72
2021/01/23 04:43:15;;;;;;;8.25;5.93;;;;;;;4.25;100.00;98185.59;5095372;28;20051;-74
2021/01/23 04:46:20;;;;;;;9.20;5.55;;;;;;;4.30;100.00;98186.00;5095222;28;20047;-72
2021/01/23 04:49:24;;;;;;;8.32;5.20;;;;;;;4.25;100.00;98172.34;5095227;28;20517;-72
2021/01/23 04:52:29;;;;;;;8.20;5.78;;;;;;;4.34;100.00;98177.63;5095186;28;20386;-72
2021/01/23 04:55:33;;;;;;;8.07;5.82;;;;;;;4.39;100.00;98190.44;5095057;28;20043;-73
2021/01/23 04:58:38;;;;;;;7.65;5.40;;;;;;;4.40;100.00;98195.59;5095050;28;20047;-73
2021/01/23 05:01:42;;;;;;;8.23;5.38;;;;;;;4.42;100.00;98198.94;5094981;28;20051;-72
2021/01/23 05:05:03;;;;;;;9.25;5.68;;;;;;;4.42;100.00;98206.09;5094703;28;20047;-72
2021/01/23 05:08:12;;;;;;;8.70;5.47;;;;;;;4.40;100.00;98198.25;5093504;28;20051;-72
2021/01/23 05:11:17;;;;;;;8.15;5.78;;;;;;;4.47;100.00;98204.63;5105305;28;20047;-71
2021/01/23 05:14:21;;;;;;;7.05;4.78;;;;;;;4.51;100.00;98207.84;5094297;28;20066;-72
2021/01/23 05:17:25;;;;;;;6.68;5.03;;;;;;;4.56;100.00;98214.38;5094413;28;20051;-73
2021/01/23 05:20:35;;;;;;;6.65;4.97;;;;;;;4.49;100.00;98218.59;5104671;28;20050;-71
2021/01/23 05:23:39;;;;;;;8.10;5.63;;;;;;;4.49;100.00;98218.59;5094138;28;20055;-73
2021/01/23 05:26:55;;;;;;;7.82;5.85;;;;;;;4.53;100.00;98229.78;5093044;28;20051;-72
2021/01/23 05:30:01;;;;;;;7.68;6.15;;;;;;;4.55;100.00;98228.63;5093847;28;20047;-72
2021/01/23 05:33:12;;;;;;;8.77;6.10;;;;;;;4.57;100.00;98237.28;5093772;28;20039;-73
2021/01/23 05:36:16;;;;;;;8.95;6.97;;;;;;;4.52;100.00;98242.22;5093930;28;20051;-72
2021/01/23 05:39:22;;;;;;;9.50;7.13;;;;;;;4.61;100.00;98245.81;5094169;28;20055;-72
2021/01/23 05:42:26;;;;;;;11.65;8.38;;;;;;;4.63;100.00;98248.31;5093964;28;20043;-73
2021/01/23 05:45:30;;;;;;;12.10;9.80;;;;;;;4.64;100.00;98253.50;5093791;28;20051;-72
2021/01/23 05:48:39;;;;;;;12.45;9.57;;;;;;;4.61;100.00;98253.78;5093724;28;20383;-73
2021/01/23 05:51:43;;;;;;;10.85;8.43;;;;;;;4.63;100.00;98258.94;5104725;28;20047;-72
2021/01/23 05:54:48;;;;;;;11.45;8.05;;;;;;;4.65;100.00;98270.25;5093805;28;20517;-71
2021/01/23 05:57:56;;;;;;;8.73;7.28;;;;;;;4.64;100.00;98264.13;5093769;28;20482;-71
2021/01/23 06:01:16;;;;;;;8.02;6.60;;;;;;;4.67;100.00;98268.28;5093643;28;20051;-78
2021/01/23 06:04:20;;;;;;;7.88;6.70;;;;;;;4.69;100.00;98266.31;5093495;28;20402;-74
2021/01/23 06:07:47;;;;;;;6.32;5.30;;;;;;;4.70;100.00;98278.59;5092752;28;20047;-71
2021/01/23 06:10:51;;;;;;;7.68;5.43;;;;;;;4.71;100.00;98272.31;5093364;28;20051;-73
2021/01/23 06:13:57;;;;;;;6.65;5.55;;;;;;;4.74;100.00;98285.31;5092604;28;20106;-70
2021/01/23 06:17:01;;;;;;;6.57;5.20;;;;;;;4.74;100.00;98287.97;5093438;28;20383;-73
2021/01/23 06:20:06;;;;;;;7.80;5.55;;;;;;;4.73;100.00;98288.94;5093543;28;20047;-73
2021/01/23 06:23:13;;;;;;;7.07;5.70;;;;;;;4.71;100.00;98286.44;5093461;28;20042;-72
2021/01/23 06:26:18;;;;;;;7.13;5.55;;;;;;;4.72;100.00;98287.25;5092735;28;20059;-75
2021/01/23 06:29:33;;;;;;;7.40;5.88;;;;;;;4.73;100.00;98292.44;5093474;28;20497;-73
2021/01/23 06:32:38;;;;;;;6.57;5.22;;;;;;;4.76;100.00;98296.63;5093424;28;20055;-73
2021/01/23 06:35:42;;;;;;;7.60;5.90;;;;;;;4.70;100.00;98298.03;5092582;28;20047;-72
2021/01/23 06:39:09;;;;;;;8.02;6.15;;;;;;;4.68;100.00;98304.50;5096483;28;20053;-76
2021/01/23 06:42:13;;;;;;;7.00;5.95;;;;;;;4.72;100.00;98313.84;5096952;28;20047;-73
2021/01/23 06:45:25;;;;;;;8.40;6.50;;;;;;;4.74;100.00;98317.19;5096349;28;20114;-73
2021/01/23 06:48:29;;;;;;;10.18;6.85;;;;;;;4.75;100.00;98318.84;5096432;28;20059;-72
2021/01/23 06:51:34;;;;;;;9.18;7.00;;;;;;;4.83;100.00;98326.94;5097161;28;20482;-73
2021/01/23 06:54:38;;;;;;;8.65;6.68;;;;;;;4.76;100.00;98325.84;5107784;28;20052;-72
2021/01/23 06:57:46;;;;;;;9.55;7.35;;;;;;;4.82;100.00;98335.88;5097040;28;20485;-73
2021/01/23 07:00:56;;;;;;;8.30;6.50;;;;;;;4.81;100.00;98335.06;5096978;28;20055;-73
2021/01/23 07:04:06;;;;;;;8.15;6.85;;;;;;;4.88;100.00;98341.47;5096973;28;20047;-73
2021/01/23 07:07:11;;;;;;;8.95;7.57;;;;;;;4.91;100.00;98335.84;5096730;28;20067;-73
2021/01/23 07:10:16;;;;;;;11.30;7.68;;;;;;;4.90;100.00;98334.16;5097024;28;20051;-73
2021/01/23 07:13:21;;;;;;;8.40;6.63;;;;;;;4.90;100.00;98325.34;5096780;28;20055;-73
2021/01/23 07:16:27;;;;;;;7.15;6.07;;;;;;;4.95;100.00;98331.06;5096634;28;20067;-73
2021/01/23 07:19:31;;;;;;;6.85;6.00;;;;;;;4.98;100.00;98333.44;5095702;28;20055;-73
2021/01/23 07:22:37;;;;;;;8.75;5.95;;;;;;;5.02;100.00;98338.28;5095762;28;20055;-73
2021/01/23 07:25:42;;;;;;;10.13;6.43;;;;;;;5.02;100.00;98334.78;5096272;28;20067;-72
2021/01/23 07:28:54;;;;;;;8.48;6.22;;;;;;;5.07;100.00;98345.81;5096377;28;20059;-73
2021/01/23 07:31:58;;;;;;;8.38;6.72;;;;;;;5.09;100.00;98349.16;5096262;28;20047;-72
2021/01/23 07:35:03;;;;;;;7.78;6.35;;;;;;;5.12;100.00;98348.88;5095877;28;20051;-74
2021/01/23 07:38:08;;;;;;;8.13;5.78;;;;;;;5.15;100.00;98352.06;5096238;28;20055;-73
2021/01/23 07:41:13;;;;;;;5.70;5.07;;;;;;;5.17;100.00;98355.41;5106982;28;20059;-72
2021/01/23 07:44:19;;;;;;;7.13;5.40;;;;;;;5.24;100.00;98363.63;5096155;28;20043;-72
2021/01/23 07:47:24;;;;;;;7.18;5.80;;;;;;;5.23;100.00;98367.28;5095866;28;20044;-73
2021/01/23 07:50:42;;;;;;;5.97;5.38;;;;;;;5.28;100.00;98373.81;5094458;28;20094;-73
2021/01/23 07:54:12;;;;;;;8.40;5.18;;;;;;;5.36;100.00;98373.06;5095973;28;20047;-72
2021/01/23 07:57:16;;;;;;;8.32;5.72;;;;;;;5.38;100.00;98372.91;5095073;28;20047;-74
2021/01/23 08:00:22;;;;;;;10.00;6.25;;;;;;;5.47;100.00;98386.16;5094958;28;20047;-71
2021/01/23 08:03:36;;;;;;;15.43;6.90;;;;;;;5.57;100.00;98386.09;5095715;28;20328;-71
2021/01/23 08:06:40;;;;;;;12.13;6.30;;;;;;;5.65;100.00;98388.84;5095684;28;20422;-71
2021/01/23 08:09:45;;;;;;;6.05;4.53;;;;;;;5.76;100.00;98389.44;5095472;28;20067;-72
2021/01/23 08:13:01;;;;;;;5.75;3.70;;;;;;;5.74;100.00;98394.06;5095804;28;20051;-71
2021/01/23 08:16:10;;;;;;;3.95;2.95;;;;;;;5.84;99.88;98401.97;5093929;28;20051;-78
2021/01/23 08:19:14;;;;;;;4.88;2.90;;;;;;;5.90;99.90;98396.91;5087178;28;20051;-78
2021/01/23 08:22:18;;;;;;;5.88;3.10;;;;;;;5.99;99.57;98404.97;5094662;28;20051;-77
2021/01/23 08:25:25;;;;;;;3.15;2.17;;;;;;;6.05;98.97;98415.03;5082871;28;20509;-77
2021/01/23 08:28:32;;;;;;;4.63;2.33;;;;;;;6.11;98.69;98419.72;5074779;28;20067;-78
2021/01/23 08:31:40;;;;;;;3.65;2.10;;;;;;;6.16;98.12;98418.28;5074342;28;20051;-73
2021/01/23 08:34:45;;;;;;;3.03;1.80;;;;;;;6.20;97.85;98422.28;5074827;28;20075;-78
2021/01/23 08:37:50;;;;;;;3.33;2.30;;;;;;;6.24;97.76;98422.81;5074392;28;20056;-72
2021/01/23 08:40:54;;;;;;;3.63;2.53;;;;;;;6.25;97.06;98428.00;5074280;28;20494;-81
2021/01/23 08:43:59;;;;;;;3.03;1.80;;;;;;;6.23;97.17;98432.63;5085451;28;20391;-79
2021/01/23 08:47:03;;;;;;;3.40;1.73;;;;;;;6.33;97.04;98440.53;5074501;28;20060;-81
2021/01/23 08:50:08;;;;;;;4.55;2.05;;;;;;;6.30;96.63;98438.19;5074510;28;20360;-79
2021/01/23 08:53:14;;;;;;;3.72;1.50;;;;;;;6.35;96.44;98446.53;5073536;28;20055;-80
2021/01/23 08:56:18;;;;;;;4.40;1.65;;;;;;;6.40;96.19;98458.41;5085417;28;20051;-77
2021/01/23 08:59:23;;;;;;;2.80;1.50;;;;;;;6.36;96.13;98457.06;5073701;28;20055;-75
2021/01/23 09:02:27;;;;;;;3.17;2.17;;;;;;;6.35;95.74;98460.72;5085045;28;20053;-80
2021/01/23 09:05:31;;;;;;;6.32;2.60;;;;;;;6.35;95.57;98463.38;5074105;28;20044;-75
2021/01/23 09:08:36;;;;;;;8.13;3.88;;;;;;;6.44;96.15;98470.44;5073678;28;20052;-79
2021/01/23 09:11:40;;;;;;;23.65;10.10;;;;;;;6.54;95.75;98473.03;5073684;28;20056;-75
2021/01/23 09:14:46;;;;;;;62.10;41.80;;;;;;;6.61;95.87;98484.75;5073774;28;20392;-74
2021/01/23 09:17:50;;;;;;;9.20;6.72;;;;;;;6.60;96.02;98482.22;5073910;28;20107;-76
2021/01/23 09:20:55;;;;;;;4.20;2.47;;;;;;;6.61;95.94;98494.56;5073742;28;20047;-74
2021/01/23 09:23:59;;;;;;;2.90;1.80;;;;;;;6.55;96.10;98494.19;5073548;28;20039;-77
2021/01/23 09:27:05;;;;;;;3.60;1.90;;;;;;;6.64;95.87;98502.25;5073050;28;20051;-75
2021/01/23 09:30:09;;;;;;;5.93;2.92;;;;;;;6.76;96.49;98501.00;5082663;28;20043;-76
2021/01/23 09:33:15;;;;;;;6.53;4.20;;;;;;;6.80;95.97;98516.53;5094206;28;20510;-79
2021/01/23 09:36:20;;;;;;;4.05;2.50;;;;;;;6.91;96.08;98524.25;5086262;28;20066;-75
2021/01/23 09:39:25;;;;;;;3.08;1.85;;;;;;;6.92;95.84;98525.09;5092401;28;20047;-78
2021/01/23 09:42:30;;;;;;;4.45;2.13;;;;;;;7.00;95.19;98536.69;5092414;28;20051;-77
2021/01/23 09:45:34;;;;;;;5.55;2.60;;;;;;;7.00;95.14;98550.00;5092322;28;20394;-76
2021/01/23 09:48:38;;;;;;;5.85;2.33;;;;;;;7.02;94.75;98558.69;5092256;28;20051;-73
2021/01/23 09:51:43;;;;;;;3.92;1.70;;;;;;;6.99;94.09;98559.00;5091441;28;20502;-73
2021/01/23 09:54:48;;;;;;;5.88;2.55;;;;;;;6.96;94.53;98569.97;5093121;28;20051;-73
2021/01/23 09:57:52;;;;;;;3.05;1.80;;;;;;;6.90;94.08;98565.28;5094102;28;20062;-75
2021/01/23 10:00:56;;;;;;;4.88;1.75;;;;;;;6.91;94.46;98582.94;5093263;28;20059;-73
2021/01/23 10:04:01;;;;;;;3.10;1.58;;;;;;;6.97;94.72;98579.66;5093654;28;20453;-74
2021/01/23 10:07:05;;;;;;;5.78;1.98;;;;;;;6.90;94.92;98591.09;5093390;28;20047;-74
2021/01/23 10:10:10;;;;;;;37.70;29.38;;;;;;;6.99;95.30;98596.34;5093482;28;20055;-77
2021/01/23 10:13:14;;;;;;;166.13;113.28;;;;;;;7.02;94.69;98588.03;5086387;28;20067;-76
2021/01/23 10:16:19;;;;;;;13.63;6.50;;;;;;;7.06;94.73;98586.72;5097097;28;20039;-73
2021/01/23 10:19:23;;;;;;;5.03;1.77;;;;;;;7.18;94.23;98595.31;5094502;28;20051;-73
2021/01/23 10:22:28;;;;;;;3.50;1.80;;;;;;;7.33;93.54;98593.75;5094388;28;20117;-73
2021/01/23 10:25:32;;;;;;;2.42;1.27;;;;;;;7.32;93.59;98586.75;5094377;28;20051;-73
2021/01/23 10:28:36;;;;;;;2.70;1.08;;;;;;;7.37;92.99;98589.78;5094274;28;20047;-73
2021/01/23 10:31:41;;;;;;;2.80;1.05;;;;;;;7.48;92.25;98602.03;5095554;28;20055;-73
2021/01/23 10:34:45;;;;;;;2.30;1.20;;;;;;;7.54;92.32;98604.88;5097896;28;20055;-73
2021/01/23 10:37:50;;;;;;;3.45;1.70;;;;;;;7.61;91.74;98603.25;5097070;28;20047;-73
2021/01/23 10:40:54;;;;;;;2.45;0.95;;;;;;;7.70;91.46;98614.81;5097758;28;20055;-72
2021/01/23 10:43:58;;;;;;;2.88;1.10;;;;;;;7.73;91.36;98612.66;5097627;28;20074;-72
2021/01/23 10:47:02;;;;;;;2.85;1.70;;;;;;;7.77;91.13;98629.22;5097394;28;20047;-72
2021/01/23 10:50:08;;;;;;;2.80;1.20;;;;;;;7.70;91.61;98629.00;5097557;28;20054;-72
2021/01/23 10:53:12;;;;;;;2.58;1.33;;;;;;;7.64;91.84;98629.66;5097262;28;20043;-72
2021/01/23 10:56:16;;;;;;;2.63;1.15;;;;;;;7.64;91.59;98634.13;5097754;28;20063;-72
2021/01/23 10:59:21;;;;;;;3.17;1.20;;;;;;;7.67;91.32;98634.69;5096580;28;20392;-73
2021/01/23 11:02:25;;;;;;;2.10;1.05;;;;;;;7.72;91.09;98640.38;5097343;28;20066;-72
2021/01/23 11:05:30;;;;;;;8.00;2.35;;;;;;;7.68;91.39;98646.16;5096415;28;20047;-72
2021/01/23 11:08:35;;;;;;;3.17;1.45;;;;;;;7.66;91.73;98653.50;5096962;28;20043;-72
2021/01/23 11:11:39;;;;;;;2.58;1.30;;;;;;;7.68;91.59;98647.00;5097160;28;20059;-72
2021/01/23 11:14:43;;;;;;;2.00;1.10;;;;;;;7.71;91.14;98662.72;5097059;28;20051;-73
2021/01/23 11:17:48;;;;;;;2.30;1.00;;;;;;;7.64;91.35;98659.00;5097359;28;20043;-72
2021/01/23 11:20:52;;;;;;;1.95;0.80;;;;;;;7.70;90.89;98665.56;5096963;28;20536;-72
2021/01/23 11:23:56;;;;;;;1.85;1.00;;;;;;;7.68;90.58;98672.88;5096406;28;20051;-72
2021/01/23 11:27:04;;;;;;;2.42;1.00;;;;;;;7.75;90.66;98663.25;5096081;28;20047;-72
2021/01/23 11:30:10;;;;;;;5.55;3.53;;;;;;;7.77;90.18;98671.94;5096744;28;20502;-72
2021/01/23 11:33:15;;;;;;;3.08;1.40;;;;;;;7.81;90.27;98681.31;5096777;28;20051;-72
2021/01/23 11:36:20;;;;;;;2.25;1.00;;;;;;;7.79;89.50;98676.13;5096721;28;20371;-71
2021/01/23 11:39:24;;;;;;;2.42;0.95;;;;;;;7.86;89.50;98681.66;5096627;28;20047;-72
2021/01/23 11:42:28;;;;;;;2.00;1.00;;;;;;;7.95;89.41;98675.38;5096593;28;20063;-72
2021/01/23 11:45:32;;;;;;;2.47;1.05;;;;;;;7.95;89.57;98680.72;5096495;28;20421;-72
2021/01/23 11:48:37;;;;;;;1.98;1.02;;;;;;;7.97;89.20;98672.56;5096425;28;20058;-73
2021/01/23 11:51:41;;;;;;;11.85;8.25;;;;;;;7.96;89.00;98677.06;5096442;28;20055;-73
2021/01/23 11:54:45;;;;;;;11.85;7.97;;;;;;;8.02;88.71;98678.25;5096178;28;20059;-71
2021/01/23 11:57:50;;;;;;;4.97;2.67;;;;;;;7.96;88.73;98670.88;5096567;28;20470;-71
2021/01/23 12:00:54;;;;;;;5.18;1.95;;;;;;;8.01;88.46;98671.22;5095415;28;20055;-71
2021/01/23 12:03:59;;;;;;;3.22;1.52;;;;;;;8.07;88.72;98678.63;5096229;28;20055;-73
2021/01/23 12:07:03;;;;;;;5.05;1.60;;;;;;;8.11;88.52;98667.44;5096174;28;20051;-73
2021/01/23 12:10:08;;;;;;;7.82;2.47;;;;;;;8.12;88.72;98671.78;5096027;28;20055;-71
2021/01/23 12:13:12;;;;;;;4.80;2.10;;;;;;;8.15;88.53;98666.13;5096008;28;20055;-73
2021/01/23 12:16:17;;;;;;;5.50;2.13;;;;;;;8.15;88.71;98668.78;5096246;28;20055;-73
2021/01/23 12:19:22;;;;;;;3.75;1.70;;;;;;;8.18;88.68;98665.81;5095360;28;20051;-73
2021/01/23 12:22:26;;;;;;;3.78;1.70;;;;;;;8.18;88.22;98673.81;5095685;28;20391;-73
2021/01/23 12:25:30;;;;;;;4.68;1.50;;;;;;;8.12;88.05;98665.63;5106500;28;20059;-72
2021/01/23 12:28:35;;;;;;;2.70;1.50;;;;;;;8.19;87.35;98672.00;5055295;28;20045;-72
2021/01/23 12:31:39;;;;;;;6.25;1.67;;;;;;;8.27;87.55;98675.53;5055154;28;20047;-72
2021/01/23 12:34:43;;;;;;;3.08;1.63;;;;;;;8.37;87.48;98673.59;5054884;28;20134;-72
2021/01/23 12:37:48;;;;;;;3.70;1.73;;;;;;;8.45;86.95;98686.16;5055272;28;20052;-72
2021/01/23 12:40:53;;;;;;;4.72;1.98;;;;;;;8.48;86.55;98684.00;5055177;28;20055;-72
2021/01/23 12:43:57;;;;;;;7.07;2.28;;;;;;;8.50;86.39;98687.34;5055172;28;20060;-72
2021/01/23 12:47:01;;;;;;;4.95;2.25;;;;;;;8.55;85.96;98691.34;5055045;28;20060;-73
2021/01/23 12:50:07;;;;;;;5.65;2.60;;;;;;;8.61;86.10;98690.72;5054939;28;20147;-73
2021/01/23 12:53:11;;;;;;;3.00;1.50;;;;;;;8.63;85.55;98702.09;5055237;28;20057;-73
2021/01/23 12:56:15;;;;;;;3.40;1.70;;;;;;;8.59;84.81;98709.63;5050007;28;20040;-80
2021/01/23 12:59:20;;;;;;;2.97;1.45;;;;;;;8.64;84.53;98715.28;5039677;28;20526;-73
2021/01/23 13:02:24;;;;;;;5.40;1.85;;;;;;;8.61;84.75;98717.47;5034558;28;20049;-77
2021/01/23 13:05:28;;;;;;;3.88;1.67;;;;;;;8.64;84.37;98717.16;5033693;28;20045;-78
2021/01/23 13:08:33;;;;;;;3.47;1.63;;;;;;;8.66;84.03;98723.16;5034666;28;20048;-79
2021/01/23 13:11:37;;;;;;;4.18;2.00;;;;;;;8.62;84.29;98727.97;5033594;28;20530;-74
2021/01/23 13:14:41;;;;;;;4.82;2.00;;;;;;;8.61;84.38;98722.81;5033573;28;20056;-74
2021/01/23 13:17:46;;;;;;;5.60;2.60;;;;;;;8.58;84.48;98731.16;5033714;28;20049;-73
2021/01/23 13:20:51;;;;;;;3.60;2.33;;;;;;;8.60;84.33;98723.78;5032911;28;20421;-74
2021/01/23 13:23:56;;;;;;;4.88;1.90;;;;;;;8.67;84.24;98723.00;5033607;28;20048;-72
2021/01/23 13:27:00;;;;;;;2.88;1.60;;;;;;;8.72;84.65;98722.50;5051329;28;20048;-74
2021/01/23 13:30:06;;;;;;;2.17;1.00;;;;;;;8.77;85.08;98714.81;5073778;28;20056;-74
2021/01/23 13:33:10;;;;;;;1.85;0.95;;;;;;;8.75;85.33;98712.31;5074377;28;20055;-72
2021/01/23 13:36:14;;;;;;;3.22;2.17;;;;;;;8.61;84.62;98680.88;5073800;28;20047;-74
2021/01/23 13:39:18;;;;;;;3.45;1.30;;;;;;;8.56;84.03;98663.63;5074097;28;20047;-74
2021/01/23 13:42:23;;;;;;;5.57;2.90;;;;;;;8.52;85.02;98657.75;5074091;28;20055;-73
2021/01/23 13:45:30;;;;;;;6.53;3.75;;;;;;;8.46;85.00;98669.97;5074120;28;20490;-73
2021/01/23 13:48:34;;;;;;;6.57;3.78;;;;;;;8.54;85.90;98682.50;5074019;28;20436;-73
2021/01/23 13:51:39;;;;;;;6.07;3.92;;;;;;;8.55;86.28;98678.81;5074064;28;20048;-73
2021/01/23 13:54:45;;;;;;;6.65;3.55;;;;;;;8.79;86.63;98694.13;5073479;28;20047;-73
2021/01/23 13:57:49;;;;;;;9.85;6.18;;;;;;;9.02;86.57;98685.28;5073434;28;20051;-73
2021/01/23 14:00:54;;;;;;;6.93;3.72;;;;;;;9.16;84.80;98689.13;5073960;28;20486;-72
2021/01/23 14:03:59;;;;;;;5.45;2.88;;;;;;;9.32;82.00;98694.50;5073980;28;20051;-73
2021/01/23 14:07:04;;;;;;;3.90;1.95;;;;;;;9.30;80.99;98693.84;5073507;28;20585;-76
2021/01/23 14:10:10;;;;;;;3.33;2.10;;;;;;;9.23;80.62;98694.66;5073435;28;20055;-73
2021/01/23 14:13:14;;;;;;;5.38;2.00;;;;;;;9.23;80.50;98690.16;5083798;28;20051;-73
2021/01/23 14:16:20;;;;;;;6.72;5.47;;;;;;;9.12;80.12;98683.28;5085189;28;20429;-74
2021/01/23 14:19:24;;;;;;;5.60;5.00;;;;;;;9.09;79.39;98683.59;5091077;28;20055;-72
2021/01/23 14:22:29;;;;;;;3.00;2.10;;;;;;;9.07;79.02;98684.78;5084298;28;20052;-72
2021/01/23 14:25:33;;;;;;;3.05;1.58;;;;;;;9.10;78.59;98669.25;5082229;28;20502;-73
2021/01/23 14:28:38;;;;;;;2.28;1.35;;;;;;;9.17;77.84;98672.06;5084485;28;20067;-73
2021/01/23 14:31:43;;;;;;;6.20;4.22;;;;;;;9.25;76.13;98666.72;5091647;28;20502;-73
2021/01/23 14:34:48;;;;;;;10.82;3.15;;;;;;;9.33;76.83;98663.22;5092760;28;20048;-73